createdAt,value
2018-11-11T00:01:56.379Z,90.80
2018-11-11T00:04:28.382Z,90.33
2018-11-11T00:07:00.411Z,90.50
2018-11-11T00:09:32.430Z,92.50
2018-11-11T00:12:04.459Z,90.63
2018-11-11T00:14:36.478Z,89.30
2018-11-11T00:17:08.543Z,94.43
2018-11-11T00:19:40.540Z,96.73
2018-11-11T00:22:12.551Z,95.67
2018-11-11T00:24:44.595Z,82.00
2018-11-11T00:27:16.655Z,96.17
2018-11-11T00:29:48.674Z,91.57
2018-11-11T00:32:20.714Z,84.93
2018-11-11T00:34:52.714Z,93.03
2018-11-11T00:37:24.719Z,85.10
2018-11-11T00:39:56.765Z,96.07
2018-11-11T00:42:28.746Z,91.73
2018-11-11T00:45:00.812Z,89.07
2018-11-11T00:47:32.887Z,86.13
2018-11-11T00:50:06.289Z,92.40
2018-11-11T00:52:38.334Z,88.57
2018-11-11T00:55:12.636Z,85.30
2018-11-11T00:57:45.118Z,90.97
2018-11-11T01:00:18.121Z,90.23
2018-11-11T01:02:50.116Z,91.20
2018-11-11T01:05:22.122Z,95.50
2018-11-11T01:07:54.125Z,92.93
2018-11-11T01:10:26.154Z,93.93
2018-11-11T01:12:58.274Z,96.63
2018-11-11T01:15:30.310Z,101.23
2018-11-11T01:18:02.365Z,90.20
2018-11-11T01:20:34.389Z,97.70
2018-11-11T01:23:06.418Z,99.00
2018-11-11T01:25:38.423Z,92.20
2018-11-11T01:28:10.450Z,101.73
2018-11-11T01:30:42.442Z,99.43
2018-11-11T01:33:14.470Z,86.43
2018-11-11T01:35:46.486Z,92.63
2018-11-11T01:38:18.506Z,95.80
2018-11-11T01:40:50.518Z,99.00
2018-11-11T01:43:22.566Z,106.00
2018-11-11T01:45:54.607Z,96.40
2018-11-11T01:48:26.598Z,108.47
2018-11-11T01:50:58.631Z,104.27
2018-11-11T01:53:30.649Z,102.53
2018-11-11T01:56:02.708Z,107.33
2018-11-11T01:58:34.785Z,109.27
2018-11-11T02:01:06.826Z,116.60
2018-11-11T02:03:38.851Z,110.43
2018-11-11T02:06:10.892Z,110.13
2018-11-11T02:08:42.894Z,111.17
2018-11-11T02:11:14.902Z,116.40
2018-11-11T02:13:46.898Z,109.57
2018-11-11T02:16:18.944Z,125.33
2018-11-11T02:18:50.942Z,123.43
2018-11-11T02:21:22.988Z,123.67
2018-11-11T02:23:55.012Z,122.63
2018-11-11T02:26:27.043Z,130.37
2018-11-11T02:28:59.053Z,116.73
2018-11-11T02:31:31.082Z,111.07
2018-11-11T02:34:03.354Z,106.90
2018-11-11T02:36:35.362Z,113.50
2018-11-11T02:39:08.104Z,104.37
2018-11-11T02:41:40.186Z,104.63
2018-11-11T02:44:12.198Z,103.70
2018-11-11T02:49:23.015Z,98.70
2018-11-11T02:51:55.037Z,105.30
2018-11-11T02:54:27.051Z,95.77
2018-11-11T02:56:59.059Z,102.73
2018-11-11T02:59:31.075Z,94.90
2018-11-11T03:02:03.127Z,89.90
2018-11-11T03:04:35.297Z,97.10
2018-11-11T03:07:07.362Z,88.93
2018-11-11T03:09:39.395Z,98.93
2018-11-11T03:12:11.427Z,96.07
2018-11-11T03:14:43.435Z,88.83
2018-11-11T03:17:15.459Z,89.10
2018-11-11T03:19:47.486Z,89.77
2018-11-11T03:22:19.533Z,92.13
2018-11-11T03:24:51.597Z,91.10
2018-11-11T03:27:23.656Z,95.83
2018-11-11T03:29:55.724Z,89.33
2018-11-11T03:32:27.778Z,89.77
2018-11-11T03:34:59.768Z,90.57
2018-11-11T03:37:31.766Z,104.13
2018-11-11T03:40:06.285Z,91.60
2018-11-11T03:42:38.371Z,101.57
2018-11-11T03:45:12.657Z,102.20
2018-11-11T03:47:45.670Z,104.27
2018-11-11T03:50:17.750Z,99.17
2018-11-11T03:52:49.749Z,91.07
2018-11-11T03:55:21.758Z,109.87
2018-11-11T03:57:53.765Z,95.83
2018-11-11T04:00:25.818Z,104.93
2018-11-11T04:02:57.825Z,100.40
2018-11-11T04:05:29.850Z,98.37
2018-11-11T04:08:01.843Z,96.30
2018-11-11T04:10:33.948Z,106.07
2018-11-11T04:13:05.898Z,90.93
2018-11-11T04:15:37.991Z,107.83
2018-11-11T04:18:10.027Z,98.27
2018-11-11T04:20:42.063Z,100.80
2018-11-11T04:23:14.077Z,94.67
2018-11-11T04:25:46.081Z,103.03
2018-11-11T04:28:18.109Z,102.30
2018-11-11T04:30:50.122Z,104.07
2018-11-11T04:33:22.142Z,94.73
2018-11-11T04:35:54.135Z,105.20
2018-11-11T04:38:26.182Z,104.33
2018-11-11T04:40:58.183Z,112.57
2018-11-11T04:43:30.231Z,106.87
2018-11-11T04:46:02.227Z,100.40
2018-11-11T04:48:34.257Z,105.37
2018-11-11T04:51:06.234Z,110.90
2018-11-11T04:53:38.243Z,106.20
2018-11-11T04:56:10.270Z,107.67
2018-11-11T04:58:42.228Z,109.87
2018-11-11T05:01:14.253Z,111.73
2018-11-11T05:03:46.274Z,115.83
2018-11-11T05:06:18.323Z,116.67
2018-11-11T05:08:50.313Z,116.53
2018-11-11T05:11:22.323Z,112.87
2018-11-11T05:13:54.308Z,107.93
2018-11-11T05:16:26.318Z,125.97
2018-11-11T05:18:58.308Z,139.07
2018-11-11T05:21:30.329Z,121.93
2018-11-11T05:24:02.567Z,132.73
2018-11-11T05:26:34.754Z,126.00
2018-11-11T05:29:06.738Z,131.37
2018-11-11T05:31:38.781Z,123.40
2018-11-11T05:34:10.762Z,122.73
2018-11-11T05:36:42.815Z,124.63
2018-11-11T05:39:14.802Z,115.37
2018-11-11T05:41:46.853Z,135.80
2018-11-11T05:44:18.847Z,130.97
2018-11-11T05:46:50.865Z,127.07
2018-11-11T05:49:22.866Z,119.03
2018-11-11T05:51:54.895Z,128.60
2018-11-11T05:54:26.890Z,133.00
2018-11-11T05:56:58.894Z,128.83
2018-11-11T05:59:30.924Z,120.77
2018-11-11T06:02:02.902Z,139.33
2018-11-11T06:04:34.926Z,122.87
2018-11-11T06:07:06.934Z,143.83
2018-11-11T06:09:38.951Z,130.43
2018-11-11T06:12:10.950Z,127.00
2018-11-11T06:14:42.963Z,130.30
2018-11-11T06:17:14.995Z,125.40
2018-11-11T06:19:47.014Z,123.93
2018-11-11T06:22:19.037Z,122.83
2018-11-11T06:24:51.068Z,116.90
2018-11-11T06:27:23.147Z,118.93
2018-11-11T06:29:55.175Z,118.90
2018-11-11T06:32:27.194Z,106.23
2018-11-11T06:34:59.279Z,113.73
2018-11-11T06:37:31.326Z,109.77
2018-11-11T06:40:04.550Z,98.30
2018-11-11T06:42:36.637Z,110.23
2018-11-11T06:45:10.316Z,105.40
2018-11-11T06:47:43.010Z,123.33
2018-11-11T06:50:15.474Z,119.47
2018-11-11T06:52:47.501Z,116.30
2018-11-11T06:55:19.532Z,118.33
2018-11-11T06:57:51.583Z,122.60
2018-11-11T07:00:23.550Z,117.13
2018-11-11T07:03:07.130Z,119.83
2018-11-11T07:05:39.187Z,111.90
2018-11-11T07:08:11.206Z,142.90
2018-11-11T07:10:43.194Z,115.77
2018-11-11T07:13:15.207Z,118.53
2018-11-11T07:15:47.642Z,120.47
2018-11-11T07:18:22.039Z,121.10
2018-11-11T07:20:54.064Z,139.10
2018-11-11T07:23:28.308Z,122.20
2018-11-11T07:26:00.338Z,121.47
2018-11-11T07:28:32.407Z,124.93
2018-11-11T07:31:05.199Z,121.77
2018-11-11T07:33:37.286Z,118.63
2018-11-11T07:36:10.237Z,120.47
2018-11-11T07:38:42.202Z,113.43
2018-11-11T07:41:14.219Z,103.00
2018-11-11T07:43:46.222Z,109.73
2018-11-11T07:46:18.239Z,102.50
2018-11-11T07:48:51.419Z,97.30
2018-11-11T07:51:23.450Z,90.43
2018-11-11T07:53:55.479Z,102.37
2018-11-11T07:56:27.473Z,100.47
2018-11-11T07:58:59.494Z,97.67
2018-11-11T08:01:31.528Z,86.87
2018-11-11T08:04:03.796Z,88.27
2018-11-11T08:06:35.833Z,101.27
2018-11-11T08:09:07.840Z,102.40
2018-11-11T08:11:56.173Z,94.60
2018-11-11T08:14:28.414Z,83.20
2018-11-11T08:17:00.432Z,90.33
2018-11-11T08:19:32.422Z,80.50
2018-11-11T08:22:04.747Z,76.60
2018-11-11T08:24:36.800Z,79.77
2018-11-11T08:27:08.843Z,78.47
2018-11-11T08:29:40.833Z,69.80
2018-11-11T08:32:12.887Z,68.67
2018-11-11T08:34:44.883Z,73.37
2018-11-11T08:37:16.923Z,81.27
2018-11-11T08:39:48.922Z,76.83
2018-11-11T08:42:20.958Z,77.53
2018-11-11T08:44:53.020Z,83.37
2018-11-11T08:47:25.030Z,83.27
2018-11-11T08:49:57.046Z,77.30
2018-11-11T08:52:29.066Z,76.90
2018-11-11T08:55:01.079Z,77.13
2018-11-11T08:57:33.174Z,87.43
2018-11-11T09:00:08.294Z,93.13
2018-11-11T09:02:40.617Z,88.10
2018-11-11T09:05:19.396Z,84.07
2018-11-11T09:07:51.415Z,85.73
2018-11-11T09:10:23.434Z,77.27
2018-11-11T09:12:55.410Z,91.37
2018-11-11T09:15:27.411Z,96.40
2018-11-11T09:17:59.398Z,100.93
2018-11-11T09:20:31.439Z,79.10
2018-11-11T09:23:03.452Z,82.20
2018-11-11T09:25:35.529Z,76.17
2018-11-11T09:28:07.592Z,88.07
2018-11-11T09:30:39.632Z,80.63
2018-11-11T09:33:11.643Z,73.67
2018-11-11T09:35:43.685Z,81.83
2018-11-11T09:38:15.664Z,71.70
2018-11-11T09:40:47.686Z,74.43
2018-11-11T09:43:19.705Z,68.90
2018-11-11T09:45:51.697Z,74.00
2018-11-11T09:48:23.742Z,74.20
2018-11-11T09:50:55.798Z,82.43
2018-11-11T09:53:27.826Z,69.13
2018-11-11T09:55:59.889Z,74.77
2018-11-11T09:58:31.981Z,79.37
2018-11-11T10:01:04.078Z,64.83
2018-11-11T10:03:38.012Z,69.43
2018-11-11T10:07:15.293Z,72.87
2018-11-11T10:09:53.007Z,78.37
2018-11-11T10:12:31.743Z,74.37
2018-11-11T10:15:10.486Z,77.07
2018-11-11T10:17:46.754Z,79.27
2018-11-11T10:20:37.890Z,77.23
2018-11-11T10:23:15.728Z,69.13
2018-11-11T10:25:53.474Z,73.27
2018-11-11T10:28:29.987Z,91.23
2018-11-11T10:31:23.394Z,68.70
2018-11-11T10:34:01.152Z,72.47
2018-11-11T10:36:40.054Z,73.10
2018-11-11T10:39:16.138Z,75.33
2018-11-11T10:41:53.888Z,72.73
2018-11-11T10:44:47.281Z,69.30
2018-11-11T10:47:31.799Z,73.53
2018-11-11T10:50:06.403Z,72.40
2018-11-11T10:52:38.405Z,74.40
2018-11-11T10:55:10.494Z,80.17
2018-11-11T10:57:42.570Z,78.97
2018-11-11T11:00:20.517Z,81.63
2018-11-11T11:02:55.423Z,76.03
2018-11-11T11:05:27.419Z,79.80
2018-11-11T11:07:59.425Z,82.73
2018-11-11T11:10:31.451Z,73.77
2018-11-11T11:13:03.537Z,75.87
2018-11-11T11:15:35.521Z,78.60
2018-11-11T11:18:07.580Z,81.20
2018-11-11T11:20:39.633Z,87.63
2018-11-11T11:23:11.761Z,81.00
2018-11-11T11:25:43.762Z,77.37
2018-11-11T11:28:16.618Z,82.13
2018-11-11T11:30:48.647Z,78.30
2018-11-11T11:33:20.706Z,83.20
2018-11-11T11:35:52.807Z,75.27
2018-11-11T11:38:24.951Z,78.93
2018-11-11T11:40:57.486Z,74.33
2018-11-11T11:43:29.525Z,97.50
2018-11-11T11:46:01.522Z,86.83
2018-11-11T11:48:34.890Z,83.17
2018-11-11T11:51:06.938Z,84.67
2018-11-11T11:53:38.927Z,104.47
2018-11-11T11:56:11.981Z,87.07
2018-11-11T11:58:44.039Z,95.30
2018-11-11T12:01:16.143Z,91.53
2018-11-11T12:03:48.174Z,87.13
2018-11-11T12:06:20.204Z,104.20
2018-11-11T12:08:52.290Z,79.30
2018-11-11T12:11:24.263Z,76.80
2018-11-11T12:13:56.332Z,91.73
2018-11-11T12:16:28.385Z,82.00
2018-11-11T12:19:00.462Z,81.03
2018-11-11T12:21:32.511Z,72.63
2018-11-11T12:24:10.188Z,74.77
2018-11-11T12:26:42.264Z,70.10
2018-11-11T12:29:14.300Z,78.90
2018-11-11T12:31:46.465Z,74.03
2018-11-11T12:34:18.503Z,72.87
2018-11-11T12:36:50.631Z,67.03
2018-11-11T12:39:22.703Z,59.03
2018-11-11T12:41:54.789Z,73.80
2018-11-11T12:44:26.956Z,61.70
2018-11-11T12:46:59.153Z,68.90
2018-11-11T12:49:31.106Z,60.77
2018-11-11T12:52:03.367Z,45.53
2018-11-11T12:54:35.403Z,46.97
2018-11-11T12:57:07.564Z,40.70
2018-11-11T12:59:39.595Z,41.03
2018-11-11T13:02:11.699Z,40.93
2018-11-11T13:04:43.959Z,38.07
2018-11-11T13:07:15.912Z,41.57
2018-11-11T13:09:48.139Z,40.80
2018-11-11T13:12:20.258Z,40.67
2018-11-11T13:14:52.244Z,40.93
2018-11-11T13:17:24.292Z,37.53
2018-11-11T13:19:56.383Z,34.90
2018-11-11T13:22:28.394Z,33.93
2018-11-11T13:25:00.427Z,38.03
2018-11-11T13:27:32.442Z,36.77
2018-11-11T13:30:05.723Z,40.07
2018-11-11T13:32:37.971Z,42.47
2018-11-11T13:35:11.847Z,37.07
2018-11-11T13:37:43.902Z,38.97
2018-11-11T13:40:17.122Z,38.80
2018-11-11T13:42:49.126Z,36.20
2018-11-11T13:45:22.022Z,38.07
2018-11-11T13:47:54.023Z,42.33
2018-11-11T13:50:26.072Z,36.90
2018-11-11T13:52:58.087Z,35.93
2018-11-11T13:55:30.121Z,39.53
2018-11-11T13:58:02.148Z,40.13
2018-11-11T14:00:34.205Z,36.83
2018-11-11T14:03:06.257Z,42.80
2018-11-11T14:05:38.327Z,35.60
2018-11-11T14:08:10.408Z,37.67
2018-11-11T14:10:42.409Z,34.73
2018-11-11T14:13:14.472Z,37.23
2018-11-11T14:15:46.482Z,34.00
2018-11-11T14:18:18.680Z,37.90
2018-11-11T14:20:50.594Z,31.70
2018-11-11T14:23:22.626Z,35.87
2018-11-11T14:25:54.748Z,45.03
2018-11-11T14:28:26.722Z,34.57
2018-11-11T14:30:58.738Z,33.07
2018-11-11T14:33:30.783Z,34.57
2018-11-11T14:36:02.833Z,33.47
2018-11-11T14:38:34.978Z,27.40
2018-11-11T14:41:06.967Z,34.90
2018-11-11T14:43:39.039Z,32.47
2018-11-11T14:46:11.132Z,34.33
2018-11-11T14:48:43.110Z,35.30
2018-11-11T14:51:15.147Z,36.53
2018-11-11T14:53:47.150Z,37.97
2018-11-11T14:56:19.207Z,40.30
2018-11-11T14:58:51.302Z,38.43
2018-11-11T15:01:23.280Z,36.07
2018-11-11T15:03:55.304Z,40.63
2018-11-11T15:06:27.378Z,37.57
2018-11-11T15:08:59.414Z,34.13
2018-11-11T15:11:31.456Z,34.97
2018-11-11T15:14:03.583Z,37.80
2018-11-11T15:16:35.613Z,33.43
2018-11-11T15:19:07.857Z,36.53
2018-11-11T15:21:39.803Z,41.10
2018-11-11T15:24:18.516Z,35.80
2018-11-11T15:26:50.557Z,43.77
2018-11-11T15:29:22.661Z,42.33
2018-11-11T15:31:54.716Z,38.70
2018-11-11T15:34:26.758Z,41.23
2018-11-11T15:36:58.818Z,39.87
2018-11-11T15:39:30.864Z,52.90
2018-11-11T15:42:02.886Z,46.17
2018-11-11T15:44:34.907Z,40.40
2018-11-11T15:47:06.933Z,47.70
2018-11-11T15:49:38.979Z,48.43
2018-11-11T15:52:10.992Z,53.87
2018-11-11T15:54:43.018Z,50.80
2018-11-11T15:57:15.067Z,60.43
2018-11-11T15:59:47.102Z,55.13
2018-11-11T16:02:19.164Z,53.87
2018-11-11T16:04:51.204Z,51.50
2018-11-11T16:07:23.258Z,57.73
2018-11-11T16:09:55.432Z,55.20
2018-11-11T16:12:27.460Z,62.83
2018-11-11T16:14:59.508Z,61.30
2018-11-11T16:17:31.571Z,66.47
2018-11-11T16:20:06.086Z,61.53
2018-11-11T16:22:38.173Z,65.97
2018-11-11T16:25:10.623Z,72.80
2018-11-11T16:27:43.576Z,79.20
2018-11-11T16:30:20.327Z,72.27
2018-11-11T16:32:53.049Z,80.17
2018-11-11T16:35:25.929Z,85.43
2018-11-11T16:37:58.455Z,81.30
2018-11-11T16:40:32.839Z,81.30
2018-11-11T16:43:04.910Z,77.67
2018-11-11T16:45:37.342Z,80.53
2018-11-11T16:48:09.383Z,74.93
2018-11-11T16:50:41.406Z,73.17
2018-11-11T16:53:13.542Z,71.00
2018-11-11T16:55:45.506Z,61.20
2018-11-11T16:58:17.540Z,70.97
2018-11-11T17:00:49.529Z,68.40
2018-11-11T17:03:21.561Z,48.93
2018-11-11T17:05:53.591Z,59.10
2018-11-11T17:08:25.661Z,60.23
2018-11-11T17:10:57.698Z,55.63
2018-11-11T17:13:29.741Z,55.90
2018-11-11T17:16:01.791Z,47.80
2018-11-11T17:18:33.855Z,50.57
2018-11-11T17:21:05.981Z,55.10
2018-11-11T17:23:37.935Z,38.17
2018-11-11T17:26:09.984Z,38.60
2018-11-11T17:28:42.004Z,43.23
2018-11-11T17:31:14.087Z,39.33
2018-11-11T17:33:46.091Z,30.73
2018-11-11T17:36:18.146Z,31.80
2018-11-11T17:38:50.185Z,34.10
2018-11-11T17:41:22.244Z,33.23
2018-11-11T17:43:54.271Z,30.10
2018-11-11T17:46:26.331Z,31.77
2018-11-11T17:48:58.413Z,28.77
2018-11-11T17:51:30.502Z,27.77
2018-11-11T17:54:02.574Z,27.17
2018-11-11T17:56:34.671Z,20.37
2018-11-11T17:59:06.712Z,22.03
2018-11-11T18:01:38.775Z,22.13
2018-11-11T18:04:10.871Z,26.13
2018-11-11T18:06:42.923Z,23.63
2018-11-11T18:09:14.995Z,29.00
2018-11-11T18:11:47.006Z,20.00
2018-11-11T18:14:19.101Z,18.23
2018-11-11T18:16:51.117Z,17.03
2018-11-11T18:19:23.160Z,16.50
2018-11-11T18:21:55.607Z,18.77
2018-11-11T18:24:27.638Z,20.90
2018-11-11T18:26:59.792Z,16.93
2018-11-11T18:29:31.767Z,16.03
2018-11-11T18:32:04.687Z,19.40
2018-11-11T18:34:36.807Z,14.97
2018-11-11T18:37:08.834Z,18.53
2018-11-11T18:39:40.881Z,18.07
2018-11-11T18:42:12.965Z,17.20
2018-11-11T18:44:44.994Z,17.37
2018-11-11T18:47:17.071Z,16.53
2018-11-11T18:49:49.238Z,15.33
2018-11-11T18:52:21.305Z,18.00
2018-11-11T18:54:53.424Z,15.23
2018-11-11T18:57:25.557Z,15.63
2018-11-11T18:59:57.493Z,16.67
2018-11-11T19:02:29.610Z,15.83
2018-11-11T19:05:01.629Z,15.67
2018-11-11T19:07:33.670Z,13.50
2018-11-11T19:10:07.434Z,17.53
2018-11-11T19:12:40.230Z,18.57
2018-11-11T19:15:13.393Z,13.83
2018-11-11T19:17:46.132Z,17.67
2018-11-11T19:20:19.715Z,14.93
2018-11-11T19:22:51.750Z,13.73
2018-11-11T19:25:25.185Z,14.63
2018-11-11T19:27:58.128Z,12.47
2018-11-11T19:30:30.862Z,12.10
2018-11-11T19:33:02.910Z,16.83
2018-11-11T19:35:35.019Z,13.17
2018-11-11T19:38:07.091Z,14.87
2018-11-11T19:40:39.143Z,11.23
2018-11-11T19:43:11.191Z,11.37
2018-11-11T19:45:43.228Z,15.17
2018-11-11T19:48:15.316Z,16.63
2018-11-11T19:50:47.366Z,15.27
2018-11-11T19:53:19.459Z,14.10
2018-11-11T19:55:51.534Z,12.87
2018-11-11T19:58:23.562Z,14.60
2018-11-11T20:00:55.755Z,15.93
2018-11-11T20:03:27.800Z,15.17
2018-11-11T20:05:59.963Z,14.37
2018-11-11T20:08:31.973Z,13.87
2018-11-11T20:11:04.471Z,10.10
2018-11-11T20:13:36.572Z,12.13
2018-11-11T20:16:08.666Z,19.00
2018-11-11T20:18:40.743Z,12.63
2018-11-11T20:21:12.792Z,11.67
2018-11-11T20:23:44.951Z,14.07
2018-11-11T20:26:16.977Z,18.30
2018-11-11T20:28:49.059Z,16.60
2018-11-11T20:31:21.145Z,16.77
2018-11-11T20:33:53.410Z,12.67
2018-11-11T20:36:25.435Z,16.33
2018-11-11T20:38:57.515Z,12.30
2018-11-11T20:41:29.557Z,14.67
2018-11-11T20:44:01.661Z,17.43
2018-11-11T20:46:34.112Z,14.27
2018-11-11T20:49:06.354Z,14.67
2018-11-11T20:51:38.396Z,13.20
2018-11-11T20:54:10.444Z,15.70
2018-11-11T20:56:42.664Z,16.87
2018-11-11T20:59:14.582Z,13.53
2018-11-11T21:01:46.728Z,16.07
2018-11-11T21:04:18.788Z,11.40
2018-11-11T21:06:50.830Z,16.93
2018-11-11T21:09:22.875Z,15.37
2018-11-11T21:11:54.941Z,16.83
2018-11-11T21:14:26.958Z,16.00
2018-11-11T21:16:58.994Z,17.60
2018-11-11T21:19:31.116Z,16.23
2018-11-11T21:22:03.678Z,13.03
2018-11-11T21:24:35.726Z,18.37
2018-11-11T21:27:08.135Z,15.87
2018-11-11T21:29:40.347Z,15.33
2018-11-11T21:32:12.445Z,14.33
2018-11-11T21:34:44.494Z,15.80
2018-11-11T21:37:16.542Z,19.40
2018-11-11T21:39:48.560Z,19.73
2018-11-11T21:42:20.654Z,15.27
2018-11-11T21:44:52.821Z,17.37
2018-11-11T21:47:24.772Z,16.00
2018-11-11T21:49:56.794Z,15.37
2018-11-11T21:52:28.846Z,16.73
2018-11-11T21:55:00.885Z,19.30
2018-11-11T21:57:32.903Z,18.03
2018-11-11T22:00:06.893Z,16.70
2018-11-11T22:02:38.950Z,15.30
2018-11-11T22:05:12.101Z,19.23
2018-11-11T22:07:44.154Z,15.73
2018-11-11T22:10:16.215Z,19.37
2018-11-11T22:12:48.218Z,18.70
2018-11-11T22:15:20.287Z,25.77
2018-11-11T22:17:52.311Z,20.23
2018-11-11T22:20:24.354Z,16.70
2018-11-11T22:22:56.399Z,17.33
2018-11-11T22:25:28.430Z,17.30
2018-11-11T22:28:00.516Z,22.83
2018-11-11T22:30:32.527Z,19.40
2018-11-11T22:33:04.663Z,25.07
2018-11-11T22:35:36.656Z,18.97
2018-11-11T22:38:08.694Z,20.13
2018-11-11T22:40:40.726Z,19.33
2018-11-11T22:43:12.753Z,22.03
2018-11-11T22:45:44.769Z,21.03
2018-11-11T22:48:16.819Z,20.93
2018-11-11T22:50:48.881Z,20.83
2018-11-11T22:53:20.937Z,23.23
2018-11-11T22:55:52.962Z,20.73
2018-11-11T22:58:25.030Z,26.93
2018-11-11T23:01:02.754Z,23.50
2018-11-11T23:03:34.742Z,25.93
2018-11-11T23:06:06.776Z,23.47
2018-11-11T23:08:38.773Z,23.53
2018-11-11T23:11:10.815Z,20.60
2018-11-11T23:13:42.829Z,23.50
2018-11-11T23:16:14.917Z,20.83
2018-11-11T23:18:46.875Z,26.87
2018-11-11T23:21:18.910Z,18.37
2018-11-11T23:23:50.907Z,24.93
2018-11-11T23:26:22.947Z,28.37
2018-11-11T23:28:54.972Z,25.93
2018-11-11T23:31:27.040Z,22.50
2018-11-11T23:33:59.066Z,21.87
2018-11-11T23:36:31.084Z,21.17
2018-11-11T23:39:04.065Z,21.50
2018-11-11T23:41:36.191Z,22.77
2018-11-11T23:44:08.822Z,24.20
2018-11-11T23:46:40.862Z,18.17
2018-11-11T23:49:12.883Z,19.07
2018-11-11T23:51:44.903Z,22.87
2018-11-11T23:54:16.922Z,19.53
2018-11-11T23:56:49.120Z,20.33
2018-11-11T23:59:21.198Z,17.43
